Time;durP1;ratioP1;P1;durP2;ratioP2;P2;SDS_P1;SDS_P2;PMS_P1;PMS_P2;Temp;Humidity;BMP_temperature;BMP_pressure;BME280_temperature;BME280_humidity;BME280_pressure;Samples;Min_cycle;Max_cycle;Signal;HPM_P1;HPM_P2
2022/11/18 00:00:12;;;;;;;20.62;12.13;;;;;;;19.24;54.37;100434.09;143726;903;46004;-62
2022/11/18 00:02:51;;;;;;;17.70;11.05;;;;;;;19.24;54.89;100432.19;143725;760;46010;-62
2022/11/18 00:05:38;;;;;;;17.48;11.75;;;;;;;19.20;54.49;100428.38;143727;709;46004;-61
2022/11/18 00:08:19;;;;;;;17.58;11.93;;;;;;;19.19;55.29;100434.91;143728;596;46010;-62
2022/11/18 00:10:58;;;;;;;18.85;12.88;;;;;;;19.18;55.06;100435.16;143727;592;46004;-62
2022/11/18 00:16:23;;;;;;;19.83;12.70;;;;;;;19.23;54.89;100435.19;143722;699;47002;-62
2022/11/18 00:19:00;;;;;;;17.58;12.85;;;;;;;19.19;55.46;100426.72;143726;568;46006;-61
2022/11/18 00:21:38;;;;;;;25.60;16.00;;;;;;;19.12;55.60;100423.41;143727;850;46004;-62
2022/11/18 00:24:16;;;;;;;27.73;16.60;;;;;;;19.12;55.43;100423.41;143725;586;46010;-61
2022/11/18 00:26:54;;;;;;;30.65;20.70;;;;;;;19.10;56.25;100420.13;143726;973;46004;-62
2022/11/18 00:29:30;;;;;;;26.92;17.85;;;;;;;19.06;55.83;100416.31;143724;725;46006;-61
2022/11/18 00:32:06;;;;;;;47.05;33.63;;;;;;;19.12;56.27;100417.16;143721;649;46002;-62
2022/11/18 00:34:48;;;;;;;38.78;27.58;;;;;;;19.12;56.39;100415.25;143726;704;46009;-62
2022/11/18 00:37:27;;;;;;;32.05;20.88;;;;;;;19.09;56.45;100413.03;143723;572;46008;-61
2022/11/18 00:40:07;;;;;;;25.27;18.67;;;;;;;19.03;56.25;100414.13;143726;603;46006;-61
2022/11/18 00:42:52;;;;;;;23.75;16.35;;;;;;;19.04;56.65;100422.00;143729;597;46011;-62
2022/11/18 00:45:26;;;;;;;24.90;18.08;;;;;;;19.05;55.33;100417.41;143726;589;46011;-61
2022/11/18 00:48:02;;;;;;;21.75;13.30;;;;;;;19.07;55.30;100417.94;143726;666;47004;-61
2022/11/18 00:50:41;;;;;;;25.67;15.20;;;;;;;19.11;55.63;100407.34;143724;591;46007;-62
2022/11/18 00:53:20;;;;;;;23.08;16.00;;;;;;;19.06;55.83;100410.88;143728;640;46004;-61
2022/11/18 00:55:56;;;;;;;28.45;17.02;;;;;;;19.02;56.25;100412.47;143727;615;46008;-62
2022/11/18 00:58:32;;;;;;;19.58;13.05;;;;;;;18.98;55.99;100403.19;143720;701;47004;-61
2022/11/18 01:01:10;;;;;;;22.92;12.57;;;;;;;18.95;56.17;100407.25;143728;567;46006;-61
2022/11/18 01:03:46;;;;;;;13.70;10.57;;;;;;;18.91;56.51;100403.37;143730;574;46004;-62
2022/11/18 01:06:23;;;;;;;16.98;11.35;;;;;;;18.91;55.97;100403.37;143726;945;46010;-61
2022/11/18 01:09:02;;;;;;;18.45;11.32;;;;;;;18.95;55.84;100407.25;143727;599;46004;-61
2022/11/18 01:14:33;;;;;;;17.23;11.10;;;;;;;18.93;56.81;100406.66;143753;638;45007;-61
2022/11/18 01:17:10;;;;;;;23.38;12.98;;;;;;;18.89;56.84;100395.47;143749;566;46922;-61
2022/11/18 01:19:48;;;;;;;22.52;14.00;;;;;;;18.91;57.32;100403.37;143749;695;45004;-61
2022/11/18 01:22:25;;;;;;;20.05;12.02;;;;;;;18.91;57.41;100395.22;143750;573;46006;-62
2022/11/18 01:25:05;;;;;;;17.90;10.70;;;;;;;18.95;56.76;100407.25;143750;569;46000;-61
2022/11/18 01:27:42;;;;;;;20.45;12.00;;;;;;;18.96;57.02;100397.19;143747;591;45916;-61
2022/11/18 01:30:20;;;;;;;20.02;13.62;;;;;;;18.97;56.66;100402.38;143749;574;45006;-61
2022/11/18 01:32:57;;;;;;;16.73;12.07;;;;;;;18.98;56.87;100390.38;143752;572;45008;-61
2022/11/18 01:35:40;;;;;;;18.23;11.90;;;;;;;19.02;57.19;100409.75;143751;860;45004;-61
2022/11/18 01:38:18;;;;;;;18.42;12.65;;;;;;;18.97;56.64;100413.28;143750;573;45029;-62
2022/11/18 01:40:55;;;;;;;17.40;12.27;;;;;;;19.02;56.50;100409.75;143749;808;45006;-61
2022/11/18 01:43:47;;;;;;;18.70;11.80;;;;;;;18.83;56.79;100403.88;143750;779;45923;-61
2022/11/18 01:46:27;;;;;;;20.02;12.60;;;;;;;18.79;57.62;100409.03;143751;667;45010;-62
2022/11/18 01:49:17;;;;;;;20.58;12.60;;;;;;;18.86;57.09;100416.94;143749;567;45921;-61
2022/11/18 01:51:59;;;;;;;19.15;12.98;;;;;;;18.92;57.43;100408.56;143750;567;45006;-61
2022/11/18 01:54:40;;;;;;;18.90;13.07;;;;;;;18.94;57.64;100405.59;143750;592;45922;-61
2022/11/18 01:57:23;;;;;;;21.10;11.68;;;;;;;19.00;56.93;100409.19;143750;654;45005;-61
2022/11/18 02:00:00;;;;;;;24.08;13.15;;;;;;;19.02;57.48;100405.12;143749;838;45921;-62
2022/11/18 02:02:40;;;;;;;23.23;13.02;;;;;;;19.03;57.39;100409.47;143751;566;45010;-61
2022/11/18 02:05:19;;;;;;;22.05;12.82;;;;;;;19.07;57.19;100410.59;143750;629;45924;-60
2022/11/18 02:07:56;;;;;;;16.73;11.10;;;;;;;19.12;57.32;100415.25;143750;587;45010;-61
2022/11/18 02:10:35;;;;;;;21.12;12.20;;;;;;;19.12;57.10;100420.69;143736;601;46010;-62
2022/11/18 02:13:10;;;;;;;18.00;12.05;;;;;;;19.11;57.29;100416.31;143729;978;46004;-61
2022/11/18 02:16:09;;;;;;;19.75;11.75;;;;;;;19.11;57.21;100423.69;143728;578;46008;-61
2022/11/18 02:19:12;;;;;;;21.33;12.07;;;;;;;19.09;57.92;100419.31;143723;572;46006;-61
2022/11/18 02:22:32;;;;;;;18.00;12.40;;;;;;;19.08;58.31;100419.56;143727;918;46013;-61
2022/11/18 02:25:44;;;;;;;16.23;10.52;;;;;;;19.03;58.51;100420.37;143728;577;46006;-62
2022/11/18 02:29:05;;;;;;;16.55;10.68;;;;;;;18.96;58.06;100427.13;143728;671;46016;-61
2022/11/18 02:32:00;;;;;;;19.70;11.60;;;;;;;18.94;58.12;100419.19;143729;589;46004;-61
2022/11/18 02:35:13;;;;;;;17.42;9.98;;;;;;;19.00;57.71;100428.25;143728;870;46006;-61
2022/11/18 02:38:03;;;;;;;17.55;10.05;;;;;;;19.04;57.83;100418.47;143728;746;46006;-60
2022/11/18 02:41:12;;;;;;;17.27;9.48;;;;;;;19.11;57.22;100419.03;143727;568;47010;-62
2022/11/18 02:43:54;;;;;;;16.55;9.50;;;;;;;19.08;57.64;100400.50;143729;884;46004;-62
2022/11/18 02:46:43;;;;;;;19.58;9.73;;;;;;;19.11;57.41;100408.16;143726;586;46012;-61
2022/11/18 02:49:30;;;;;;;16.30;9.93;;;;;;;19.12;58.04;100417.16;143724;645;46015;-62
2022/11/18 02:52:11;;;;;;;15.68;9.75;;;;;;;19.12;58.10;100417.97;143727;678;46006;-62
2022/11/18 02:54:50;;;;;;;15.93;9.90;;;;;;;19.10;57.71;100411.97;143729;687;46004;-61
2022/11/18 02:57:27;;;;;;;16.42;9.20;;;;;;;19.08;57.92;100419.56;143727;592;46011;-62
2022/11/18 03:00:05;;;;;;;15.07;8.85;;;;;;;19.07;58.56;100421.47;143727;713;46006;-62
2022/11/18 03:03:22;;;;;;;16.23;10.05;;;;;;;19.12;58.08;100414.44;143727;579;46008;-61
2022/11/18 03:06:31;;;;;;;15.57;9.27;;;;;;;19.14;57.86;100413.09;143730;849;46004;-61
2022/11/18 03:09:46;;;;;;;16.73;10.57;;;;;;;19.16;57.91;100427.25;143727;787;46012;-62
2022/11/18 03:12:39;;;;;;;15.88;10.27;;;;;;;19.14;58.01;100415.81;143750;583;45932;-62
2022/11/18 03:15:40;;;;;;;18.10;10.75;;;;;;;19.12;57.96;100409.00;143750;581;45920;-62
2022/11/18 03:19:11;;;;;;;20.80;9.00;;;;;;;19.04;59.17;100421.19;143752;591;45010;-61
2022/11/18 03:21:59;;;;;;;17.02;9.80;;;;;;;19.04;58.70;100419.28;143749;593;45922;-61
2022/11/18 03:24:42;;;;;;;13.80;8.98;;;;;;;19.03;58.67;100412.19;143749;707;45006;-61
2022/11/18 03:27:42;;;;;;;15.30;9.90;;;;;;;19.04;58.59;100410.31;143750;953;45920;-61
2022/11/18 03:30:28;;;;;;;15.02;9.63;;;;;;;18.96;58.62;100397.19;143751;772;45004;-62
2022/11/18 03:33:14;;;;;;;18.45;9.48;;;;;;;18.97;58.80;100398.81;143749;973;45920;-62
2022/11/18 03:35:57;;;;;;;18.05;8.88;;;;;;;19.00;58.26;100392.87;143753;973;45006;-62
2022/11/18 03:38:39;;;;;;;17.48;9.15;;;;;;;19.00;58.71;100404.56;143750;579;45933;-61
2022/11/18 03:41:21;;;;;;;16.92;9.70;;;;;;;18.97;58.21;100401.53;143754;663;46002;-61
2022/11/18 03:44:04;;;;;;;15.68;9.50;;;;;;;18.94;58.14;100398.25;143747;609;45922;-62
2022/11/18 03:47:06;;;;;;;17.30;8.48;;;;;;;18.96;57.97;100397.19;143749;973;45006;-62
2022/11/18 03:50:02;;;;;;;12.75;8.45;;;;;;;18.97;57.82;100412.44;143745;973;45924;-63
2022/11/18 03:52:44;;;;;;;15.50;8.13;;;;;;;18.98;57.97;100419.53;143750;841;45006;-62
2022/11/18 03:55:25;;;;;;;17.45;7.78;;;;;;;18.99;58.13;100408.34;143751;572;45922;-62
2022/11/18 03:58:11;;;;;;;17.58;10.75;;;;;;;18.92;58.45;100414.00;143750;756;45930;-61
2022/11/18 04:00:50;;;;;;;21.15;12.70;;;;;;;18.92;58.62;100416.72;143746;586;45924;-62
2022/11/18 04:03:26;;;;;;;26.98;13.88;;;;;;;18.93;58.44;100423.81;143751;576;46002;-61
2022/11/18 04:06:34;;;;;;;22.95;12.88;;;;;;;18.90;58.58;100434.41;143748;604;45922;-62
2022/11/18 04:09:21;;;;;;;22.52;12.02;;;;;;;18.93;58.68;100442.06;143750;824;45006;-62
2022/11/18 04:12:21;;;;;;;16.33;11.48;;;;;;;18.95;58.27;100442.66;143750;575;45922;-62
2022/11/18 04:14:58;;;;;;;17.62;8.13;;;;;;;18.97;57.71;100435.03;143749;588;46002;-62
2022/11/18 04:17:36;;;;;;;13.20;7.18;;;;;;;18.97;58.01;100443.22;143750;655;45920;-62
2022/11/18 04:20:14;;;;;;;15.05;7.80;;;;;;;19.00;57.72;100444.56;143751;605;46006;-61
2022/11/18 04:22:52;;;;;;;22.45;12.98;;;;;;;18.99;58.25;100441.00;143752;985;45922;-61
2022/11/18 04:25:28;;;;;;;37.80;21.37;;;;;;;18.97;58.55;100445.94;143750;716;46002;-62
2022/11/18 04:28:08;;;;;;;31.55;21.02;;;;;;;18.83;58.90;100429.19;143750;789;45010;-62
2022/11/18 04:30:45;;;;;;;19.77;10.88;;;;;;;18.86;58.52;100428.66;143750;579;45006;-62
2022/11/18 04:33:24;;;;;;;19.35;10.65;;;;;;;18.84;58.84;100421.84;143751;734;45009;-62
2022/11/18 04:36:00;;;;;;;17.77;10.75;;;;;;;18.86;59.30;100416.94;143752;567;45010;-61
2022/11/18 04:38:44;;;;;;;15.68;10.02;;;;;;;18.88;59.09;100422.97;143750;633;45010;-61
2022/11/18 04:41:54;;;;;;;19.67;9.45;;;;;;;18.89;59.15;100414.53;143749;976;45007;-62
2022/11/18 04:44:15;;;;;;;;;;;;;;;18.92;58.77;100411.28;143753;984;45924;-62
2022/11/18 04:46:51;;;;;;;16.87;8.73;;;;;;;18.96;58.92;100413.50;143760;972;46002;-62
2022/11/18 04:49:30;;;;;;;15.45;8.50;;;;;;;18.94;58.92;100400.16;143752;977;45012;-61
2022/11/18 04:52:09;;;;;;;16.48;8.60;;;;;;;18.97;58.21;100398.81;143749;945;45006;-61
2022/11/18 04:54:45;;;;;;;14.52;8.88;;;;;;;18.96;58.92;100402.63;143747;582;46006;-61
2022/11/18 04:57:21;;;;;;;22.25;8.38;;;;;;;18.95;58.47;100393.66;143749;588;46002;-62
2022/11/18 05:00:07;;;;;;;20.83;9.25;;;;;;;18.96;58.66;100408.06;143748;596;45926;-61
2022/11/18 05:02:45;;;;;;;17.42;10.73;;;;;;;18.94;58.80;100411.03;143752;980;45008;-62
2022/11/18 05:05:23;;;;;;;16.92;10.55;;;;;;;18.93;58.29;100420.28;143751;590;45006;-62
2022/11/18 05:07:59;;;;;;;20.15;11.57;;;;;;;18.89;58.67;100414.53;143749;586;45010;-61
2022/11/18 05:10:36;;;;;;;20.77;10.60;;;;;;;18.87;58.39;100413.16;143736;573;46009;-61
2022/11/18 05:13:15;;;;;;;17.40;10.02;;;;;;;18.85;58.52;100415.31;143727;573;46004;-61
2022/11/18 05:16:00;;;;;;;25.67;9.90;;;;;;;18.78;59.10;100418.25;143727;942;46006;-61
2022/11/18 05:18:39;;;;;;;23.10;10.73;;;;;;;18.76;59.24;100425.84;143729;598;46020;-61
2022/11/18 05:21:16;;;;;;;18.02;9.85;;;;;;;18.73;59.37;100419.06;143726;648;46023;-61
2022/11/18 05:23:55;;;;;;;22.75;10.45;;;;;;;18.70;59.26;100429.63;143727;721;46004;-62
2022/11/18 05:26:32;;;;;;;17.70;10.73;;;;;;;18.69;59.46;100420.66;143726;881;46007;-61
2022/11/18 05:29:09;;;;;;;47.15;20.00;;;;;;;18.59;59.70;100413.22;143726;577;46006;-62
2022/11/18 05:31:44;;;;;;;39.30;20.35;;;;;;;18.57;59.35;100411.84;143726;572;46008;-60
2022/11/18 05:34:21;;;;;;;33.20;17.15;;;;;;;18.57;59.75;100415.38;143720;954;46005;-62
2022/11/18 05:36:59;;;;;;;28.77;16.62;;;;;;;18.58;59.34;100418.94;143725;589;46006;-61
2022/11/18 05:39:35;;;;;;;24.58;13.57;;;;;;;18.57;59.90;100428.97;143728;600;46002;-61
2022/11/18 05:45:05;;;;;;;23.48;12.90;;;;;;;18.61;59.67;100449.16;143730;978;46004;-62
2022/11/18 05:50:33;;;;;;;;;;;;;;;18.59;59.41;100448.59;143732;980;46004;-62
2022/11/18 05:53:11;;;;;;;18.70;10.20;;;;;;;18.60;59.13;100457.56;143728;569;46936;-62
2022/11/18 05:56:15;;;;;;;19.87;10.20;;;;;;;18.58;58.93;100452.38;143725;569;46008;-62
2022/11/18 05:59:10;;;;;;;20.30;10.00;;;;;;;18.62;59.02;100450.78;143722;785;47002;-61
2022/11/18 06:02:09;;;;;;;23.60;9.57;;;;;;;18.64;58.77;100439.63;143720;986;46006;-62
2022/11/18 06:05:17;;;;;;;16.45;9.10;;;;;;;18.59;59.15;100439.63;143724;978;46008;-62
2022/11/18 06:07:54;;;;;;;20.58;9.88;;;;;;;18.58;59.13;100432.53;143723;843;47004;-62
2022/11/18 06:10:35;;;;;;;19.87;11.00;;;;;;;18.59;59.35;100440.41;143726;813;46006;-62
2022/11/18 06:13:18;;;;;;;19.20;10.05;;;;;;;18.62;59.64;100445.34;143727;979;46002;-61
2022/11/18 06:15:57;;;;;;;22.52;10.13;;;;;;;18.74;59.13;100447.91;143722;598;46010;-61
2022/11/18 06:18:34;;;;;;;30.55;11.63;;;;;;;18.82;58.90;100441.16;143722;578;47002;-62
2022/11/18 06:21:13;;;;;;;24.23;11.43;;;;;;;18.89;58.78;100444.44;143725;984;46006;-61
2022/11/18 06:23:50;;;;;;;24.37;11.80;;;;;;;18.98;58.82;100449.47;143726;953;46004;-62
2022/11/18 06:26:28;;;;;;;24.90;11.50;;;;;;;19.01;59.30;100451.66;143723;717;46011;-61
2022/11/18 06:29:06;;;;;;;23.15;10.82;;;;;;;19.05;59.34;100442.69;143719;973;46004;-61
2022/11/18 06:31:44;;;;;;;30.90;12.60;;;;;;;19.09;58.83;100446.53;143726;972;46006;-62
2022/11/18 06:34:21;;;;;;;20.42;11.88;;;;;;;19.11;58.40;100449.00;143724;574;47000;-62
2022/11/18 06:36:59;;;;;;;21.42;10.50;;;;;;;19.17;58.67;100447.13;143723;842;46008;-62
2022/11/18 06:39:51;;;;;;;23.42;10.90;;;;;;;19.22;58.31;100445.28;143726;886;46004;-62
2022/11/18 06:45:32;;;;;;;20.85;11.65;;;;;;;19.11;58.48;100446.28;143727;721;46004;-62
2022/11/18 06:48:08;;;;;;;28.58;11.95;;;;;;;19.08;59.39;100444.06;143725;597;46008;-60
2022/11/18 06:50:44;;;;;;;20.02;11.85;;;;;;;19.21;58.98;100448.22;143725;633;46004;-62
2022/11/18 06:53:23;;;;;;;20.08;11.82;;;;;;;19.32;59.06;100451.84;143723;683;46006;-60
2022/11/18 06:56:06;;;;;;;15.32;10.48;;;;;;;19.38;58.28;100448.88;143719;583;46004;-60
2022/11/18 06:58:42;;;;;;;24.42;10.38;;;;;;;19.58;57.63;100457.44;143724;574;46010;-61
2022/11/18 07:01:22;;;;;;;19.55;9.27;;;;;;;19.75;57.43;100462.66;143726;654;46004;-61
2022/11/18 07:04:01;;;;;;;14.90;8.75;;;;;;;19.87;57.54;100457.00;143723;733;46021;-61
2022/11/18 07:06:48;;;;;;;21.62;9.38;;;;;;;20.01;57.19;100469.06;143726;583;47000;-62
2022/11/18 07:09:28;;;;;;;20.65;12.37;;;;;;;20.12;56.62;100465.25;143728;691;46008;-61
2022/11/18 07:12:08;;;;;;;23.20;14.65;;;;;;;20.20;56.42;100474.84;143726;580;46004;-62
2022/11/18 07:14:45;;;;;;;23.08;12.68;;;;;;;20.29;56.95;100473.22;143727;939;46006;-61
2022/11/18 07:17:24;;;;;;;24.95;12.73;;;;;;;20.39;56.37;100477.87;143728;823;46011;-61
2022/11/18 07:20:00;;;;;;;18.52;12.85;;;;;;;20.49;55.54;100481.69;143727;567;46008;-61
2022/11/18 07:22:35;;;;;;;28.23;12.75;;;;;;;20.56;55.62;100480.31;143724;591;47004;-61
2022/11/18 07:25:14;;;;;;;25.30;13.55;;;;;;;20.65;55.40;100496.97;143725;602;47002;-62
2022/11/18 07:27:51;;;;;;;76.10;21.05;;;;;;;20.73;55.34;100514.75;143727;564;46002;-63
2022/11/18 07:30:31;;;;;;;24.77;11.20;;;;;;;20.73;54.68;100491.00;143726;573;46007;-62
2022/11/18 07:33:11;;;;;;;20.85;11.82;;;;;;;20.85;54.76;100482.56;143727;590;46005;-63
2022/11/18 07:35:47;;;;;;;40.97;20.45;;;;;;;20.99;54.64;100510.16;143727;572;46006;-63
2022/11/18 07:38:27;;;;;;;18.60;9.98;;;;;;;21.08;53.90;100504.94;143726;582;46004;-62
2022/11/18 07:41:10;;;;;;;26.60;11.55;;;;;;;21.15;54.05;100483.63;143726;609;46011;-63
2022/11/18 07:43:46;;;;;;;24.45;14.77;;;;;;;21.28;54.44;100486.88;143725;754;46004;-62
2022/11/18 07:46:29;;;;;;;15.63;9.10;;;;;;;21.41;54.59;100493.69;143727;604;46006;-63
2022/11/18 07:49:10;;;;;;;17.80;8.88;;;;;;;21.51;53.49;100486.28;143728;655;46010;-62
2022/11/18 07:51:48;;;;;;;20.70;10.80;;;;;;;21.64;54.18;100492.25;143730;580;46008;-62
2022/11/18 07:54:22;;;;;;;23.55;9.65;;;;;;;21.77;53.61;100490.84;143728;569;46004;-63
2022/11/18 07:56:56;;;;;;;17.52;11.60;;;;;;;21.87;53.96;100484.53;143725;579;46010;-61
2022/11/18 07:59:33;;;;;;;18.52;8.13;;;;;;;22.00;53.62;100472.97;143727;574;46004;-61
2022/11/18 08:02:14;;;;;;;13.93;7.82;;;;;;;22.16;53.77;100453.72;143730;670;46009;-62
2022/11/18 08:04:50;;;;;;;15.95;7.80;;;;;;;22.29;53.21;100449.56;143729;757;46004;-63
2022/11/18 08:07:29;;;;;;;18.05;7.10;;;;;;;22.45;52.76;100461.25;143730;567;46006;-62
2022/11/18 08:10:06;;;;;;;16.15;7.82;;;;;;;22.55;52.06;100459.25;143729;624;47000;-63
2022/11/18 08:12:45;;;;;;;16.20;7.40;;;;;;;22.68;51.30;100452.28;143724;718;46008;-62
2022/11/18 08:15:22;;;;;;;19.70;12.50;;;;;;;22.83;51.10;100451.34;143722;603;46004;-63
2022/11/18 08:18:02;;;;;;;14.38;8.40;;;;;;;22.94;50.93;100443.03;143724;573;46015;-62
2022/11/18 08:20:43;;;;;;;10.80;6.80;;;;;;;23.07;50.08;100447.00;143727;589;46002;-63
2022/11/18 08:23:20;;;;;;;22.70;8.82;;;;;;;23.19;50.42;100450.19;143725;661;46008;-63
2022/11/18 08:26:06;;;;;;;13.95;7.62;;;;;;;23.27;50.27;100446.03;143726;578;46004;-63
2022/11/18 08:28:42;;;;;;;14.02;7.62;;;;;;;23.39;49.86;100446.41;143726;742;46006;-64
2022/11/18 08:31:23;;;;;;;18.87;8.40;;;;;;;23.46;49.79;100441.41;143727;666;46003;-63
2022/11/18 08:34:06;;;;;;;22.45;12.60;;;;;;;23.54;49.66;100444.59;143724;595;46008;-64
2022/11/18 08:36:42;;;;;;;19.02;10.65;;;;;;;23.68;49.01;100441.97;143724;588;47004;-63
2022/11/18 08:39:21;;;;;;;16.95;8.05;;;;;;;23.76;48.82;100447.63;143723;590;46007;-62
2022/11/18 08:41:55;;;;;;;18.00;10.15;;;;;;;23.87;48.74;100448.31;143724;588;46004;-64
2022/11/18 08:44:39;;;;;;;20.62;9.80;;;;;;;23.98;48.67;100459.97;143726;634;46008;-64
2022/11/18 08:47:17;;;;;;;19.67;9.63;;;;;;;24.09;48.62;100455.16;143724;706;46005;-63
2022/11/18 08:49:53;;;;;;;20.20;9.93;;;;;;;24.19;47.62;100445.94;143725;577;45924;-64
2022/11/18 08:52:28;;;;;;;17.92;10.02;;;;;;;24.35;47.84;100441.88;143727;572;46004;-63
2022/11/18 08:55:03;;;;;;;21.33;10.38;;;;;;;24.56;47.54;100436.03;143724;570;46009;-64
2022/11/18 08:57:43;;;;;;;21.48;12.07;;;;;;;24.75;47.04;100438.78;143726;573;46004;-62
2022/11/18 09:00:22;;;;;;;18.80;10.23;;;;;;;24.96;45.88;100439.22;143725;577;46006;-63
2022/11/18 09:02:57;;;;;;;22.20;10.18;;;;;;;25.48;45.12;100448.44;143726;581;46002;-63
2022/11/18 09:05:34;;;;;;;15.25;8.68;;;;;;;26.15;43.80;100447.81;143724;609;46008;-63
2022/11/18 09:08:14;;;;;;;19.25;9.27;;;;;;;28.68;38.91;100445.44;143721;589;46008;-64
2022/11/18 09:10:54;;;;;;;14.68;8.85;;;;;;;32.18;32.29;100442.59;143725;601;46007;-63
2022/11/18 09:13:31;;;;;;;14.95;8.13;;;;;;;34.26;28.34;100438.91;143727;590;46004;-64
2022/11/18 09:16:10;;;;;;;17.33;7.53;;;;;;;35.81;26.44;100445.53;143723;573;46010;-63
2022/11/18 09:18:47;;;;;;;11.05;6.18;;;;;;;36.81;26.07;100441.47;143724;569;46004;-64
2022/11/18 09:21:25;;;;;;;12.55;7.00;;;;;;;36.14;26.68;100424.38;143725;644;46006;-63
2022/11/18 09:24:03;;;;;;;13.07;6.20;;;;;;;34.04;28.18;100426.53;143725;569;47000;-63
2022/11/18 09:26:41;;;;;;;9.15;5.32;;;;;;;33.14;29.51;100427.28;143725;603;46008;-64
2022/11/18 09:29:16;;;;;;;8.70;5.15;;;;;;;33.12;28.66;100416.50;143727;609;46002;-65
2022/11/18 09:31:53;;;;;;;14.52;6.32;;;;;;;33.54;29.55;100415.91;143724;619;46014;-63
2022/11/18 09:34:31;;;;;;;11.38;6.65;;;;;;;35.90;27.01;100395.75;143719;681;46004;-64
2022/11/18 09:37:07;;;;;;;12.40;7.35;;;;;;;40.47;21.46;100386.63;143726;661;46004;-64
2022/11/18 09:39:46;;;;;;;11.45;6.22;;;;;;;43.36;17.45;100389.72;143724;609;47005;-64
2022/11/18 09:42:57;;;;;;;13.70;7.47;;;;;;;45.16;15.82;100370.53;143726;567;46002;-65
2022/11/18 09:45:54;;;;;;;8.32;4.62;;;;;;;46.39;13.76;100369.69;143726;602;46004;-65
2022/11/18 09:51:20;;;;;;;7.68;2.92;;;;;;;47.92;12.39;100347.97;143727;674;46004;-64
2022/11/18 09:53:56;;;;;;;8.88;3.03;;;;;;;48.45;11.22;100351.94;143726;569;46007;-64
2022/11/18 09:56:35;;;;;;;4.57;2.20;;;;;;;48.79;11.31;100352.94;143725;572;46010;-64
2022/11/18 09:59:16;;;;;;;10.25;3.80;;;;;;;49.08;12.45;100346.75;143724;568;46010;-64
2022/11/18 10:01:52;;;;;;;9.35;4.22;;;;;;;49.35;11.90;100335.75;143718;602;46012;-64
2022/11/18 10:04:31;;;;;;;7.45;3.70;;;;;;;49.56;11.71;100328.25;143725;581;46006;-64
2022/11/18 10:07:17;;;;;;;6.32;3.15;;;;;;;49.73;11.11;100318.03;143729;590;46000;-64
2022/11/18 10:09:58;;;;;;;10.13;5.05;;;;;;;47.96;13.73;100309.56;143723;586;46009;-63
2022/11/18 10:13:06;;;;;;;15.18;5.72;;;;;;;43.30;18.28;100302.59;143725;594;46004;-65
2022/11/18 10:15:55;;;;;;;9.70;4.20;;;;;;;40.66;21.02;100297.22;143726;586;46006;-64
2022/11/18 10:19:10;;;;;;;11.23;4.53;;;;;;;39.09;22.87;100308.53;143727;652;46004;-64
2022/11/18 10:22:14;;;;;;;7.28;4.30;;;;;;;38.73;23.06;100321.81;143725;610;46008;-64
2022/11/18 10:24:53;;;;;;;12.80;4.30;;;;;;;38.56;23.71;100315.00;143724;568;46008;-64
2022/11/18 10:27:47;;;;;;;8.75;4.50;;;;;;;38.37;23.99;100303.00;143726;586;46006;-65
2022/11/18 10:30:36;;;;;;;7.85;4.43;;;;;;;38.15;23.90;100310.56;143729;587;46011;-64
2022/11/18 10:33:28;;;;;;;8.05;3.70;;;;;;;37.73;24.44;100308.03;143724;649;46008;-63
2022/11/18 10:36:42;;;;;;;6.37;3.70;;;;;;;37.23;25.05;100310.63;143725;663;46008;-64
2022/11/18 10:39:26;;;;;;;8.90;4.40;;;;;;;38.26;24.39;100293.75;143725;569;46007;-64
2022/11/18 10:42:07;;;;;;;7.68;3.70;;;;;;;39.17;21.92;100300.88;143726;567;46004;-64
2022/11/18 10:44:47;;;;;;;7.68;3.60;;;;;;;39.09;22.65;100302.13;143724;567;46010;-65
2022/11/18 10:47:53;;;;;;;5.30;3.05;;;;;;;38.06;22.53;100292.13;143725;577;46005;-63
2022/11/18 10:50:45;;;;;;;6.85;2.97;;;;;;;38.14;22.54;100297.75;143725;700;46004;-65
2022/11/18 10:53:40;;;;;;;6.03;2.62;;;;;;;38.78;21.14;100294.16;143726;577;46004;-64
2022/11/18 10:56:18;;;;;;;;;;;;;;;38.92;22.19;100298.94;143729;981;46010;-64
2022/11/18 10:58:55;;;;;;;8.02;4.18;;;;;;;38.92;21.74;100289.72;143730;567;46002;-63
2022/11/18 11:01:33;;;;;;;7.53;4.03;;;;;;;38.25;23.46;100289.34;143726;573;46009;-65
2022/11/18 11:04:27;;;;;;;12.00;4.78;;;;;;;38.17;23.80;100278.13;143727;575;46004;-64
2022/11/18 11:07:00;;;;;;;;;;;;;;;38.97;22.70;100275.28;143730;970;46010;-63
2022/11/18 11:09:40;;;;;;;16.85;4.37;;;;;;;39.23;22.55;100279.59;143731;586;46004;-65
2022/11/18 11:12:21;;;;;;;9.18;4.03;;;;;;;36.77;24.60;100272.75;143723;638;46006;-65
2022/11/18 11:15:21;;;;;;;7.20;3.20;;;;;;;38.09;22.67;100259.69;143727;745;46010;-64
2022/11/18 11:21:11;;;;;;;7.68;3.30;;;;;;;39.65;19.50;100248.91;143724;573;47004;-64
2022/11/18 11:23:48;;;;;;;8.43;3.12;;;;;;;39.89;19.86;100240.75;143727;599;46007;-64
2022/11/18 11:27:01;;;;;;;6.47;2.75;;;;;;;39.75;19.10;100240.84;143729;596;46014;-66
2022/11/18 11:30:10;;;;;;;8.32;4.00;;;;;;;39.54;21.39;100234.13;143723;572;46010;-64
2022/11/18 11:33:08;;;;;;;7.40;3.08;;;;;;;39.16;19.96;100240.31;143725;635;46004;-65
2022/11/18 11:36:33;;;;;;;12.23;3.85;;;;;;;39.04;21.92;100244.34;143726;580;46006;-64
2022/11/18 11:39:08;;;;;;;;;;;;;;;38.18;23.19;100245.28;143733;982;46011;-65
2022/11/18 11:42:15;;;;;;;7.30;4.22;;;;;;;36.43;25.46;100248.53;143731;621;46010;-64
2022/11/18 11:45:22;;;;;;;7.03;3.08;;;;;;;34.20;28.80;100241.69;143724;653;47004;-63
2022/11/18 11:48:24;;;;;;;7.93;3.65;;;;;;;32.96;30.34;100238.50;143727;622;46006;-64
2022/11/18 11:51:20;;;;;;;8.30;3.65;;;;;;;32.13;30.85;100248.38;143728;586;46002;-64
2022/11/18 11:54:37;;;;;;;11.90;3.72;;;;;;;31.61;31.70;100241.81;143726;633;46010;-63
2022/11/18 11:57:42;;;;;;;7.32;3.03;;;;;;;30.78;32.87;100234.63;143724;619;46004;-63
2022/11/18 12:00:21;;;;;;;7.47;3.05;;;;;;;30.27;33.24;100236.94;143724;567;46007;-64
2022/11/18 12:03:26;;;;;;;7.55;3.08;;;;;;;30.11;34.04;100237.56;143727;566;46004;-64
2022/11/18 12:06:09;;;;;;;10.18;3.80;;;;;;;29.68;34.58;100234.09;143727;684;46008;-63
2022/11/18 12:09:01;;;;;;;5.40;2.60;;;;;;;29.09;35.50;100241.41;143727;734;46004;-64
2022/11/18 12:12:33;;;;;;;3.35;2.50;;;;;;;28.71;35.73;100239.50;143724;601;46006;-64
2022/11/18 12:15:22;;;;;;;5.68;2.20;;;;;;;28.70;35.95;100246.16;143729;584;46011;-64
2022/11/18 12:18:31;;;;;;;4.15;2.10;;;;;;;28.31;36.59;100254.47;143726;591;46010;-63
2022/11/18 12:21:30;;;;;;;3.30;2.08;;;;;;;27.99;36.50;100248.34;143728;601;47004;-64
2022/11/18 12:24:32;;;;;;;5.30;2.03;;;;;;;27.65;36.80;100244.50;143725;602;46927;-64
2022/11/18 12:27:38;;;;;;;4.32;2.03;;;;;;;27.74;36.19;100250.03;143726;587;46006;-65
2022/11/18 12:30:26;;;;;;;6.45;1.83;;;;;;;27.69;36.55;100254.59;143725;568;46010;-64
2022/11/18 12:33:15;;;;;;;3.62;1.98;;;;;;;27.54;36.82;100244.84;143725;621;46008;-63
2022/11/18 12:35:59;;;;;;;6.75;1.77;;;;;;;27.45;36.44;100254.25;143724;588;47004;-63
2022/11/18 12:38:37;;;;;;;5.75;1.87;;;;;;;27.38;36.35;100247.25;143726;595;46010;-64
2022/11/18 12:45:23;;;;;;;3.75;1.80;;;;;;;27.01;36.81;100255.00;143726;593;46005;-63
2022/11/18 12:48:45;;;;;;;6.55;2.12;;;;;;;27.04;37.07;100265.38;143724;647;46006;-64
2022/11/18 12:51:45;;;;;;;3.53;1.85;;;;;;;26.77;35.96;100261.75;143728;574;46006;-62
2022/11/18 12:54:48;;;;;;;3.83;1.70;;;;;;;26.52;36.58;100254.19;143724;698;46008;-63
2022/11/18 12:57:38;;;;;;;5.62;1.87;;;;;;;26.38;36.88;100246.06;143724;572;46928;-64
2022/11/18 13:00:31;;;;;;;7.18;2.10;;;;;;;26.29;37.23;100255.06;143727;616;46007;-63